Time;durP1;ratioP1;P1;durP2;ratioP2;P2;SDS_P1;SDS_P2;PMS_P1;PMS_P2;Temp;Humidity;BMP_temperature;BMP_pressure;BME280_temperature;BME280_humidity;BME280_pressure;Samples;Min_cycle;Max_cycle;Signal;HPM_P1;HPM_P2
2022/10/24 00:00:42;;;;;;;9.00;2.97;;;;;;;;;;5035227;28;20781;-77
2022/10/24 00:03:08;;;;;;;7.80;2.65;;;;;;;;;;5035504;28;20256;-77
2022/10/24 00:05:33;;;;;;;9.85;3.30;;;;;;;;;;5035260;28;20083;-73
2022/10/24 00:07:58;;;;;;;8.10;2.93;;;;;;;;;;5035259;28;20016;-77
2022/10/24 00:10:24;;;;;;;5.22;2.88;;;;;;;;;;5035659;28;20808;-76
2022/10/24 00:12:49;;;;;;;9.55;3.35;;;;;;;;;;5034586;28;20028;-76
2022/10/24 00:15:15;;;;;;;6.10;3.07;;;;;;;;;;5035526;28;20021;-77
2022/10/24 00:17:40;;;;;;;13.93;3.75;;;;;;;;;;5034595;28;20272;-79
2022/10/24 00:20:06;;;;;;;5.10;2.55;;;;;;;;;;5029029;28;20034;-79
2022/10/24 00:22:31;;;;;;;6.80;2.58;;;;;;;;;;5033246;28;20303;-77
2022/10/24 00:24:56;;;;;;;12.55;3.47;;;;;;;;;;5033874;28;20486;-79
2022/10/24 00:27:21;;;;;;;11.07;3.00;;;;;;;;;;5034253;28;20562;-80
2022/10/24 00:29:46;;;;;;;6.57;2.85;;;;;;;;;;5034223;28;20612;-78
2022/10/24 00:32:13;;;;;;;8.13;3.03;;;;;;;;;;5034898;28;20036;-79
2022/10/24 00:34:38;;;;;;;4.60;2.22;;;;;;;;;;5034630;28;20646;-80
2022/10/24 00:37:03;;;;;;;8.63;2.58;;;;;;;;;;5024941;28;20132;-79
2022/10/24 00:39:29;;;;;;;5.68;2.38;;;;;;;;;;5016663;28;20431;-75
2022/10/24 00:41:57;;;;;;;14.32;3.00;;;;;;;;;;5034646;28;20026;-76
2022/10/24 00:44:22;;;;;;;6.32;1.90;;;;;;;;;;5034688;28;20547;-78
2022/10/24 00:46:48;;;;;;;10.10;2.67;;;;;;;;;;5034662;28;20093;-79
2022/10/24 00:49:17;;;;;;;6.90;2.17;;;;;;;;;;5032905;28;20025;-80
2022/10/24 00:51:45;;;;;;;4.50;2.00;;;;;;;;;;5034680;28;20351;-82
2022/10/24 00:54:12;;;;;;;8.88;2.20;;;;;;;;;;5034282;28;20017;-81
2022/10/24 00:56:40;;;;;;;4.88;1.80;;;;;;;;;;5033777;28;20522;-73
2022/10/24 00:59:07;;;;;;;3.55;1.75;;;;;;;;;;5030580;28;20816;-80
2022/10/24 01:01:33;;;;;;;8.90;1.90;;;;;;;;;;5031376;28;20093;-76
2022/10/24 01:03:58;;;;;;;5.43;2.17;;;;;;;;;;5023799;28;20436;-80
2022/10/24 01:06:35;;;;;;;5.25;1.70;;;;;;;;;;5032144;28;20028;-80
2022/10/24 01:09:03;;;;;;;3.40;1.58;;;;;;;;;;5034537;28;20065;-81
2022/10/24 01:11:47;;;;;;;5.50;1.52;;;;;;;;;;5033844;28;20353;-80
2022/10/24 01:14:31;;;;;;;3.47;1.65;;;;;;;;;;5025357;28;20072;-82
2022/10/24 01:17:06;;;;;;;7.40;2.35;;;;;;;;;;5034493;28;20091;-80
2022/10/24 01:19:49;;;;;;;4.93;1.73;;;;;;;;;;5033408;28;20439;-77
2022/10/24 01:22:17;;;;;;;4.13;1.92;;;;;;;;;;5033987;28;20028;-78
2022/10/24 01:24:49;;;;;;;7.38;1.92;;;;;;;;;;5034016;28;20041;-77
2022/10/24 01:27:32;;;;;;;6.57;1.90;;;;;;;;;;5033502;28;20471;-78
2022/10/24 01:30:04;;;;;;;5.53;1.48;;;;;;;;;;5034102;28;20025;-79
2022/10/24 01:32:30;;;;;;;4.53;1.73;;;;;;;;;;5032941;28;20014;-78
2022/10/24 01:35:00;;;;;;;4.37;1.63;;;;;;;;;;5033450;28;20025;-80
2022/10/24 01:37:32;;;;;;;8.45;1.95;;;;;;;;;;5023597;28;20024;-80
2022/10/24 01:40:24;;;;;;;6.50;2.00;;;;;;;;;;5031292;28;20029;-80
2022/10/24 01:42:51;;;;;;;3.95;1.05;;;;;;;;;;5027994;28;20183;-80
2022/10/24 01:45:19;;;;;;;6.80;1.98;;;;;;;;;;5027540;28;20014;-77
2022/10/24 01:47:47;;;;;;;5.07;1.58;;;;;;;;;;5035881;28;20039;-84
2022/10/24 01:50:14;;;;;;;4.18;1.55;;;;;;;;;;5039019;28;20029;-83
2022/10/24 01:52:41;;;;;;;4.40;1.95;;;;;;;;;;5017357;28;20029;-85
2022/10/24 01:55:06;;;;;;;6.15;1.70;;;;;;;;;;5016343;28;20021;-82
2022/10/24 01:57:32;;;;;;;7.22;1.80;;;;;;;;;;5013369;28;20053;-79
2022/10/24 01:59:57;;;;;;;3.25;1.30;;;;;;;;;;5015508;28;20024;-78
2022/10/24 02:02:25;;;;;;;7.43;1.83;;;;;;;;;;5014609;28;20026;-80
2022/10/24 02:05:01;;;;;;;3.78;1.65;;;;;;;;;;5013330;28;20264;-81
2022/10/24 02:07:27;;;;;;;6.95;1.80;;;;;;;;;;5012114;28;20040;-82
2022/10/24 02:09:55;;;;;;;4.25;1.90;;;;;;;;;;5020740;28;20025;-84
2022/10/24 02:12:22;;;;;;;4.20;1.75;;;;;;;;;;5013955;28;20816;-86
2022/10/24 02:14:50;;;;;;;8.60;1.80;;;;;;;;;;5016957;28;20312;-84
2022/10/24 02:17:16;;;;;;;6.65;1.85;;;;;;;;;;5015209;28;20688;-84
2022/10/24 02:19:42;;;;;;;17.25;2.50;;;;;;;;;;5005161;28;20030;-85
2022/10/24 02:22:16;;;;;;;5.53;1.83;;;;;;;;;;5000002;28;20048;-88
2022/10/24 02:24:44;;;;;;;3.70;1.38;;;;;;;;;;5018514;28;20023;-77
2022/10/24 02:27:31;;;;;;;11.63;1.70;;;;;;;;;;5021851;28;20075;-85
2022/10/24 02:29:59;;;;;;;5.28;1.98;;;;;;;;;;5015286;28;20017;-83
2022/10/24 02:32:29;;;;;;;4.03;1.80;;;;;;;;;;5014413;28;20025;-85
2022/10/24 02:34:55;;;;;;;5.43;2.10;;;;;;;;;;5013543;28;20013;-80
2022/10/24 02:37:20;;;;;;;15.07;1.90;;;;;;;;;;5012888;28;20033;-82
2022/10/24 02:39:46;;;;;;;3.88;1.48;;;;;;;;;;5013067;28;20079;-84
2022/10/24 02:42:13;;;;;;;6.25;2.33;;;;;;;;;;5019553;28;20558;-81
2022/10/24 02:44:39;;;;;;;4.05;1.52;;;;;;;;;;5013243;28;20033;-82
2022/10/24 02:47:05;;;;;;;4.68;1.88;;;;;;;;;;5011988;28;20018;-82
2022/10/24 02:49:31;;;;;;;6.78;1.70;;;;;;;;;;5012012;28;20099;-76
2022/10/24 02:51:56;;;;;;;7.80;1.80;;;;;;;;;;5011278;28;20025;-82
2022/10/24 02:54:21;;;;;;;7.95;1.90;;;;;;;;;;4998252;28;20793;-80
2022/10/24 02:56:49;;;;;;;3.53;1.40;;;;;;;;;;5009549;28;20880;-79
2022/10/24 02:59:14;;;;;;;4.32;1.63;;;;;;;;;;5010993;28;20029;-79
2022/10/24 03:01:40;;;;;;;6.43;2.08;;;;;;;;;;5010912;28;20018;-83
2022/10/24 03:04:05;;;;;;;8.65;1.45;;;;;;;;;;5015374;28;20029;-86
2022/10/24 03:06:31;;;;;;;4.75;1.67;;;;;;;;;;5017347;28;20036;-84
2022/10/24 03:08:56;;;;;;;3.20;1.35;;;;;;;;;;5028384;28;20041;-79
2022/10/24 03:11:21;;;;;;;7.33;1.90;;;;;;;;;;4992835;28;20032;-78
2022/10/24 03:13:46;;;;;;;3.13;1.40;;;;;;;;;;5008958;28;20264;-77
2022/10/24 03:16:12;;;;;;;4.78;1.60;;;;;;;;;;5011549;28;20694;-86
2022/10/24 03:18:37;;;;;;;5.95;2.10;;;;;;;;;;5008910;28;20083;-85
2022/10/24 03:21:02;;;;;;;6.30;2.23;;;;;;;;;;5012191;28;20030;-83
2022/10/24 03:23:28;;;;;;;4.55;1.95;;;;;;;;;;5018421;28;20296;-82
2022/10/24 03:25:57;;;;;;;6.80;1.65;;;;;;;;;;5016117;28;20021;-86
2022/10/24 03:28:22;;;;;;;5.35;1.83;;;;;;;;;;5016954;28;20056;-79
2022/10/24 03:30:48;;;;;;;7.10;2.20;;;;;;;;;;5018013;28;20140;-78
2022/10/24 03:33:13;;;;;;;3.78;1.45;;;;;;;;;;5020523;28;20033;-81
2022/10/24 03:35:38;;;;;;;6.85;1.98;;;;;;;;;;5013135;28;20128;-79
2022/10/24 03:38:06;;;;;;;4.80;1.77;;;;;;;;;;5014374;28;20021;-80
2022/10/24 03:40:32;;;;;;;5.47;2.00;;;;;;;;;;4997184;28;21002;-75
2022/10/24 03:42:57;;;;;;;7.32;1.58;;;;;;;;;;5016093;28;20053;-84
2022/10/24 03:45:22;;;;;;;9.55;1.70;;;;;;;;;;5016536;28;20025;-84
2022/10/24 03:47:47;;;;;;;3.97;1.50;;;;;;;;;;5016106;28;20025;-84
2022/10/24 03:50:13;;;;;;;4.63;1.80;;;;;;;;;;5002954;28;20272;-81
2022/10/24 03:52:38;;;;;;;7.00;2.00;;;;;;;;;;5001908;28;20271;-81
2022/10/24 03:55:03;;;;;;;8.17;2.43;;;;;;;;;;5011941;28;20260;-86
2022/10/24 03:57:29;;;;;;;4.38;1.67;;;;;;;;;;5009135;28;21246;-81
2022/10/24 03:59:54;;;;;;;7.03;2.13;;;;;;;;;;5032162;28;20032;-82
2022/10/24 04:02:19;;;;;;;4.33;1.63;;;;;;;;;;5016892;28;20288;-85
2022/10/24 04:04:44;;;;;;;6.22;1.58;;;;;;;;;;5018067;28;20310;-84
2022/10/24 04:07:09;;;;;;;3.25;1.38;;;;;;;;;;5014076;28;20779;-87
2022/10/24 04:09:35;;;;;;;11.07;2.22;;;;;;;;;;5014120;28;20101;-83
2022/10/24 04:12:00;;;;;;;3.87;2.13;;;;;;;;;;5018119;28;20465;-80
2022/10/24 04:14:25;;;;;;;4.10;1.90;;;;;;;;;;5018998;28;20295;-83
2022/10/24 04:16:51;;;;;;;6.40;2.45;;;;;;;;;;5013773;28;20021;-85
2022/10/24 04:19:17;;;;;;;9.20;1.83;;;;;;;;;;5020126;28;20039;-86
2022/10/24 04:21:43;;;;;;;13.43;2.25;;;;;;;;;;5017955;28;20292;-80
2022/10/24 04:24:08;;;;;;;8.02;2.40;;;;;;;;;;5016273;28;20075;-83
2022/10/24 04:26:33;;;;;;;13.13;2.15;;;;;;;;;;5018085;28;20057;-83
2022/10/24 04:28:59;;;;;;;4.07;2.00;;;;;;;;;;5016066;28;20798;-84
2022/10/24 04:31:24;;;;;;;5.20;1.90;;;;;;;;;;5015700;28;20109;-83
2022/10/24 04:33:49;;;;;;;15.57;2.28;;;;;;;;;;5016615;28;20311;-79
2022/10/24 04:36:14;;;;;;;6.03;2.38;;;;;;;;;;5016149;28;20031;-84
2022/10/24 04:38:40;;;;;;;12.35;2.25;;;;;;;;;;5016296;28;20104;-80
2022/10/24 04:41:05;;;;;;;5.23;1.97;;;;;;;;;;5016387;28;20029;-81
2022/10/24 04:43:30;;;;;;;6.93;2.40;;;;;;;;;;5015468;28;20261;-85
2022/10/24 04:45:56;;;;;;;17.13;2.22;;;;;;;;;;5019545;28;20013;-80
2022/10/24 04:48:21;;;;;;;7.90;2.00;;;;;;;;;;5017582;28;20029;-85
2022/10/24 04:50:47;;;;;;;12.13;2.40;;;;;;;;;;5015166;28;20083;-83
2022/10/24 04:53:12;;;;;;;10.00;2.55;;;;;;;;;;5008895;28;20543;-82
2022/10/24 04:55:38;;;;;;;6.78;2.25;;;;;;;;;;5010412;28;20033;-85
2022/10/24 04:58:03;;;;;;;5.43;2.15;;;;;;;;;;5015341;28;20036;-85
2022/10/24 05:00:28;;;;;;;5.80;2.20;;;;;;;;;;5017734;28;20033;-83
2022/10/24 05:02:54;;;;;;;4.68;2.20;;;;;;;;;;5018871;28;20018;-84
2022/10/24 05:05:19;;;;;;;6.43;2.10;;;;;;;;;;5017871;28;20428;-88
2022/10/24 05:07:44;;;;;;;4.93;1.80;;;;;;;;;;5018250;28;20060;-85
2022/10/24 05:10:10;;;;;;;9.57;2.30;;;;;;;;;;5016524;28;20402;-86
2022/10/24 05:12:35;;;;;;;4.90;2.05;;;;;;;;;;5016971;28;20017;-83
2022/10/24 05:15:00;;;;;;;7.47;2.53;;;;;;;;;;5016006;28;20053;-84
2022/10/24 05:17:26;;;;;;;5.28;2.13;;;;;;;;;;5016450;28;20017;-84
2022/10/24 05:19:51;;;;;;;5.28;2.20;;;;;;;;;;4996461;28;20072;-77
2022/10/24 05:22:17;;;;;;;6.17;1.93;;;;;;;;;;5018298;28;20029;-83
2022/10/24 05:24:42;;;;;;;10.48;2.80;;;;;;;;;;5018388;28;20108;-84
2022/10/24 05:27:07;;;;;;;9.77;2.70;;;;;;;;;;5017867;28;20054;-80
2022/10/24 05:29:32;;;;;;;5.37;2.07;;;;;;;;;;5016677;28;20292;-80
2022/10/24 05:31:58;;;;;;;8.48;2.00;;;;;;;;;;5016358;28;20388;-83
2022/10/24 05:34:23;;;;;;;11.40;2.45;;;;;;;;;;5014916;28;20030;-79
2022/10/24 05:36:48;;;;;;;4.15;2.00;;;;;;;;;;5014689;28;20029;-82
2022/10/24 05:39:13;;;;;;;8.13;2.03;;;;;;;;;;5013435;28;20573;-82
2022/10/24 05:41:39;;;;;;;5.93;2.42;;;;;;;;;;5011707;28;21121;-85
2022/10/24 05:44:04;;;;;;;8.47;2.73;;;;;;;;;;5009747;28;20031;-80
2022/10/24 05:46:29;;;;;;;5.70;2.60;;;;;;;;;;5012127;28;20275;-81
2022/10/24 05:48:54;;;;;;;13.07;2.40;;;;;;;;;;5013531;28;20339;-80
2022/10/24 05:51:20;;;;;;;11.30;2.33;;;;;;;;;;5012422;28;20280;-77
2022/10/24 05:53:45;;;;;;;6.13;2.45;;;;;;;;;;5015283;28;20022;-82
2022/10/24 05:56:10;;;;;;;10.63;2.60;;;;;;;;;;5013268;28;20510;-80
2022/10/24 05:58:35;;;;;;;4.78;1.92;;;;;;;;;;5010790;28;20017;-79
2022/10/24 06:01:01;;;;;;;6.32;2.40;;;;;;;;;;4993509;28;20059;-72
2022/10/24 06:03:26;;;;;;;7.75;2.85;;;;;;;;;;5000475;28;20021;-78
2022/10/24 06:05:51;;;;;;;12.63;2.83;;;;;;;;;;4997161;28;20079;-84
2022/10/24 06:08:17;;;;;;;9.13;2.53;;;;;;;;;;4996258;28;20014;-80
2022/10/24 06:10:46;;;;;;;7.97;3.10;;;;;;;;;;5013423;28;20274;-79
2022/10/24 06:13:11;;;;;;;6.80;2.35;;;;;;;;;;5007163;28;20279;-82
2022/10/24 06:15:36;;;;;;;7.23;2.73;;;;;;;;;;5011035;28;20861;-80
2022/10/24 06:18:01;;;;;;;19.80;3.30;;;;;;;;;;5006158;28;21025;-73
2022/10/24 06:20:26;;;;;;;11.53;3.07;;;;;;;;;;5006936;28;20740;-79
2022/10/24 06:22:52;;;;;;;5.70;2.15;;;;;;;;;;5005524;28;20826;-76
2022/10/24 06:25:17;;;;;;;8.63;2.20;;;;;;;;;;5006158;28;20048;-77
2022/10/24 06:27:42;;;;;;;8.13;2.88;;;;;;;;;;5008155;28;20028;-79
2022/10/24 06:30:09;;;;;;;9.68;2.92;;;;;;;;;;5001466;28;20443;-77
2022/10/24 06:32:35;;;;;;;6.07;2.33;;;;;;;;;;5007008;28;20032;-80
2022/10/24 06:35:00;;;;;;;7.72;2.35;;;;;;;;;;5007585;28;20025;-78
2022/10/24 06:37:26;;;;;;;6.85;2.38;;;;;;;;;;5009114;28;20025;-80
2022/10/24 06:39:51;;;;;;;6.05;2.65;;;;;;;;;;5022543;28;20378;-79
2022/10/24 06:42:16;;;;;;;10.30;2.93;;;;;;;;;;5031829;28;20017;-82
2022/10/24 06:44:42;;;;;;;9.60;3.30;;;;;;;;;;5032502;28;20762;-78
2022/10/24 06:47:07;;;;;;;8.07;2.77;;;;;;;;;;5032232;28;20777;-79
2022/10/24 06:49:32;;;;;;;9.23;2.55;;;;;;;;;;5032026;28;20747;-78
2022/10/24 06:51:58;;;;;;;12.80;3.28;;;;;;;;;;5032080;28;20094;-76
2022/10/24 06:54:23;;;;;;;9.40;2.97;;;;;;;;;;5033821;28;20017;-77
2022/10/24 06:56:48;;;;;;;8.00;2.58;;;;;;;;;;5030232;28;20742;-81
2022/10/24 06:59:14;;;;;;;8.67;2.47;;;;;;;;;;5036570;28;20036;-79
2022/10/24 07:01:40;;;;;;;9.32;2.67;;;;;;;;;;5036111;28;20268;-79
2022/10/24 07:04:06;;;;;;;11.95;3.15;;;;;;;;;;5036341;28;20040;-80
2022/10/24 07:06:32;;;;;;;7.15;3.05;;;;;;;;;;5035955;28;20368;-80
2022/10/24 07:08:58;;;;;;;10.70;3.33;;;;;;;;;;5035764;28;20056;-78
2022/10/24 07:11:23;;;;;;;12.57;2.53;;;;;;;;;;5036075;28;20036;-84
2022/10/24 07:13:48;;;;;;;9.43;2.40;;;;;;;;;;5040398;28;20022;-82
2022/10/24 07:16:14;;;;;;;15.43;3.10;;;;;;;;;;5035812;28;20021;-80
2022/10/24 07:18:39;;;;;;;11.48;2.97;;;;;;;;;;5033233;28;20260;-80
2022/10/24 07:21:06;;;;;;;6.00;2.80;;;;;;;;;;5035572;28;20084;-77
2022/10/24 07:23:32;;;;;;;16.98;3.15;;;;;;;;;;5035455;28;20283;-77
2022/10/24 07:26:04;;;;;;;10.45;3.08;;;;;;;;;;5035001;28;20047;-81
2022/10/24 07:28:29;;;;;;;8.32;2.92;;;;;;;;;;5035199;28;20490;-77
2022/10/24 07:30:55;;;;;;;11.40;2.30;;;;;;;;;;5035200;28;20025;-79
2022/10/24 07:33:20;;;;;;;10.48;3.20;;;;;;;;;;5035174;28;20116;-78
2022/10/24 07:35:45;;;;;;;10.40;3.10;;;;;;;;;;5034920;28;20029;-81
2022/10/24 07:38:10;;;;;;;8.40;3.30;;;;;;;;;;5035263;28;20353;-79
2022/10/24 07:40:36;;;;;;;8.20;2.92;;;;;;;;;;5035259;28;20731;-82
2022/10/24 07:43:01;;;;;;;8.03;3.23;;;;;;;;;;5034857;28;20035;-78
2022/10/24 07:45:27;;;;;;;12.33;3.53;;;;;;;;;;5035229;28;20339;-79
2022/10/24 07:47:52;;;;;;;7.43;2.75;;;;;;;;;;5034854;28;20017;-76
2022/10/24 07:50:18;;;;;;;12.82;3.22;;;;;;;;;;5035216;28;20021;-86
2022/10/24 07:52:43;;;;;;;8.63;3.47;;;;;;;;;;5045706;28;20036;-83
2022/10/24 07:55:08;;;;;;;12.75;3.13;;;;;;;;;;5016820;28;20116;-81
2022/10/24 07:57:34;;;;;;;12.68;3.17;;;;;;;;;;5034870;28;20083;-77
2022/10/24 07:59:59;;;;;;;8.77;3.23;;;;;;;;;;5034913;28;20079;-82
2022/10/24 08:02:24;;;;;;;10.45;2.63;;;;;;;;;;5034867;28;20323;-79
2022/10/24 08:04:49;;;;;;;9.15;3.08;;;;;;;;;;5035040;28;20028;-80
2022/10/24 08:07:15;;;;;;;6.63;3.17;;;;;;;;;;5034266;28;20087;-87
2022/10/24 08:09:41;;;;;;;6.20;2.80;;;;;;;;;;5017483;28;20287;-78
2022/10/24 08:12:07;;;;;;;13.25;2.80;;;;;;;;;;5034397;28;20839;-78
2022/10/24 08:14:32;;;;;;;12.02;3.28;;;;;;;;;;5034781;28;20049;-76
2022/10/24 08:16:57;;;;;;;11.32;3.00;;;;;;;;;;5034470;28;20104;-86
2022/10/24 08:19:22;;;;;;;10.98;2.83;;;;;;;;;;5044180;28;20078;-82
2022/10/24 08:21:49;;;;;;;8.30;3.40;;;;;;;;;;5039036;28;20029;-83
2022/10/24 08:24:15;;;;;;;12.02;2.83;;;;;;;;;;5033391;28;20646;-78
2022/10/24 08:26:40;;;;;;;4.55;1.92;;;;;;;;;;5015392;28;20036;-82
2022/10/24 08:29:10;;;;;;;8.55;3.08;;;;;;;;;;5034044;28;20087;-76
2022/10/24 08:31:35;;;;;;;6.88;2.95;;;;;;;;;;5034642;28;20035;-74
2022/10/24 08:34:00;;;;;;;10.17;3.23;;;;;;;;;;5033872;28;20077;-76
2022/10/24 08:36:29;;;;;;;9.90;3.17;;;;;;;;;;5034669;28;20272;-85
2022/10/24 08:38:54;;;;;;;13.77;3.67;;;;;;;;;;5033443;28;20283;-77
2022/10/24 08:41:25;;;;;;;12.30;3.85;;;;;;;;;;5032115;28;20049;-78
2022/10/24 08:43:51;;;;;;;11.82;4.00;;;;;;;;;;5033922;28;20456;-79
2022/10/24 08:46:31;;;;;;;9.95;3.75;;;;;;;;;;5033710;28;20071;-83
2022/10/24 08:49:01;;;;;;;11.30;3.47;;;;;;;;;;5034054;28;20109;-80
2022/10/24 08:51:40;;;;;;;15.20;3.85;;;;;;;;;;5033757;28;20432;-79
2022/10/24 08:54:10;;;;;;;15.40;3.80;;;;;;;;;;5033694;28;20079;-77
2022/10/24 08:56:35;;;;;;;10.88;3.25;;;;;;;;;;5034016;28;20048;-83
2022/10/24 08:59:01;;;;;;;12.43;3.47;;;;;;;;;;5033432;28;20025;-79
2022/10/24 09:01:45;;;;;;;12.35;4.63;;;;;;;;;;5015307;28;20342;-85
2022/10/24 09:04:13;;;;;;;13.18;3.05;;;;;;;;;;5031763;28;20021;-83
2022/10/24 09:06:39;;;;;;;12.88;3.58;;;;;;;;;;5031963;28;20380;-78
2022/10/24 09:09:13;;;;;;;12.75;3.70;;;;;;;;;;5033322;28;20022;-82
2022/10/24 09:11:44;;;;;;;14.52;3.90;;;;;;;;;;5029471;28;20112;-75
2022/10/24 09:14:13;;;;;;;9.98;3.65;;;;;;;;;;5033609;28;20077;-79
2022/10/24 09:16:40;;;;;;;14.15;4.03;;;;;;;;;;5014291;28;20035;-83
2022/10/24 09:19:07;;;;;;;8.95;3.88;;;;;;;;;;5032396;28;20021;-77
2022/10/24 09:21:33;;;;;;;9.25;3.53;;;;;;;;;;5012659;28;20373;-81
2022/10/24 09:23:58;;;;;;;7.97;3.50;;;;;;;;;;5032358;28;20089;-78
2022/10/24 09:26:28;;;;;;;8.43;3.03;;;;;;;;;;5023560;28;20390;-79
2022/10/24 09:28:55;;;;;;;8.23;3.53;;;;;;;;;;5029327;28;20323;-78
2022/10/24 09:31:21;;;;;;;11.48;3.90;;;;;;;;;;5032557;28;20045;-79
2022/10/24 09:33:48;;;;;;;15.38;4.80;;;;;;;;;;5013493;28;20021;-79
2022/10/24 09:36:16;;;;;;;16.30;4.78;;;;;;;;;;5031732;28;20028;-75
2022/10/24 09:38:42;;;;;;;11.65;4.05;;;;;;;;;;5031837;28;20026;-84
2022/10/24 09:41:29;;;;;;;11.40;3.90;;;;;;;;;;5031731;28;20476;-75
2022/10/24 09:43:55;;;;;;;6.88;2.90;;;;;;;;;;5030751;28;20030;-86
2022/10/24 09:46:28;;;;;;;11.40;3.92;;;;;;;;;;5033175;28;20072;-83
2022/10/24 09:48:56;;;;;;;12.93;3.58;;;;;;;;;;5031467;28;20025;-84
2022/10/24 09:51:32;;;;;;;9.77;3.60;;;;;;;;;;5034466;28;20032;-81
2022/10/24 09:54:06;;;;;;;15.02;4.10;;;;;;;;;;5031875;28;20071;-84
2022/10/24 09:56:34;;;;;;;10.82;4.25;;;;;;;;;;5032545;28;20542;-82
2022/10/24 09:59:18;;;;;;;10.23;3.63;;;;;;;;;;5014177;28;20468;-79
2022/10/24 10:01:44;;;;;;;14.18;4.25;;;;;;;;;;5032220;28;20098;-78
2022/10/24 10:04:14;;;;;;;12.38;4.18;;;;;;;;;;5032710;28;20456;-76
2022/10/24 10:06:46;;;;;;;13.73;4.13;;;;;;;;;;5032223;28;20105;-75
2022/10/24 10:09:13;;;;;;;8.60;3.40;;;;;;;;;;5032268;28;20152;-77
2022/10/24 10:11:39;;;;;;;9.98;4.18;;;;;;;;;;5032311;28;20021;-80
2022/10/24 10:14:15;;;;;;;15.75;4.13;;;;;;;;;;5031854;28;20022;-77
2022/10/24 10:16:40;;;;;;;13.27;3.38;;;;;;;;;;5030701;28;20025;-76
2022/10/24 10:19:17;;;;;;;9.27;4.05;;;;;;;;;;5014201;28;20029;-78
2022/10/24 10:21:56;;;;;;;13.93;4.22;;;;;;;;;;5032036;28;20444;-76
2022/10/24 10:24:23;;;;;;;10.52;3.72;;;;;;;;;;5032415;28;20033;-75
2022/10/24 10:26:48;;;;;;;10.10;3.88;;;;;;;;;;5034388;28;20012;-76
2022/10/24 10:29:17;;;;;;;10.40;3.97;;;;;;;;;;5008319;28;20041;-78
2022/10/24 10:31:46;;;;;;;11.90;3.70;;;;;;;;;;5006069;28;20268;-73
2022/10/24 10:34:27;;;;;;;13.80;4.28;;;;;;;;;;5001957;28;20076;-77
2022/10/24 10:37:01;;;;;;;7.57;3.53;;;;;;;;;;5006204;28;20025;-79
2022/10/24 10:39:35;;;;;;;10.40;4.25;;;;;;;;;;4996638;28;20032;-83
2022/10/24 10:42:06;;;;;;;12.32;4.72;;;;;;;;;;5001784;28;20049;-75
2022/10/24 10:44:43;;;;;;;7.40;3.70;;;;;;;;;;4984050;28;20839;-69
2022/10/24 10:47:08;;;;;;;19.45;4.38;;;;;;;;;;5002447;28;20095;-72
2022/10/24 10:49:36;;;;;;;14.93;3.70;;;;;;;;;;4994973;28;20026;-74
2022/10/24 10:52:05;;;;;;;11.02;4.13;;;;;;;;;;4982014;28;20028;-78
2022/10/24 10:54:36;;;;;;;12.30;3.88;;;;;;;;;;4977129;28;20044;-79
2022/10/24 10:57:05;;;;;;;12.25;4.32;;;;;;;;;;4984790;28;20866;-81
2022/10/24 10:59:57;;;;;;;11.05;3.10;;;;;;;;;;5000204;28;20029;-83
2022/10/24 11:02:28;;;;;;;14.45;4.18;;;;;;;;;;4995531;28;20045;-79
2022/10/24 11:05:12;;;;;;;9.68;3.72;;;;;;;;;;4997357;28;20064;-80
2022/10/24 11:07:55;;;;;;;10.03;3.10;;;;;;;;;;4987589;28;20087;-82
2022/10/24 11:10:26;;;;;;;13.18;4.20;;;;;;;;;;4995430;28;20026;-77
2022/10/24 11:12:53;;;;;;;19.83;3.65;;;;;;;;;;4999093;28;20175;-76
2022/10/24 11:15:18;;;;;;;17.17;4.43;;;;;;;;;;4995920;28;20029;-77
2022/10/24 11:17:49;;;;;;;8.70;3.40;;;;;;;;;;4999530;28;20120;-77
2022/10/24 11:20:25;;;;;;;9.68;4.15;;;;;;;;;;4998904;28;20039;-78
2022/10/24 11:22:55;;;;;;;10.65;3.70;;;;;;;;;;4999598;28;20723;-80
2022/10/24 11:25:25;;;;;;;11.52;3.55;;;;;;;;;;5002181;28;20124;-78
2022/10/24 11:28:01;;;;;;;19.85;4.00;;;;;;;;;;4996635;28;20049;-77
2022/10/24 11:30:35;;;;;;;10.35;3.95;;;;;;;;;;4995961;28;20056;-80
2022/10/24 11:33:03;;;;;;;10.13;3.22;;;;;;;;;;5003556;28;20060;-78
2022/10/24 11:35:29;;;;;;;13.50;3.78;;;;;;;;;;5014508;28;20025;-79
2022/10/24 11:38:02;;;;;;;10.00;3.83;;;;;;;;;;5031077;28;20135;-79
2022/10/24 11:40:28;;;;;;;8.60;3.45;;;;;;;;;;5031241;28;20017;-76
2022/10/24 11:42:56;;;;;;;14.25;3.70;;;;;;;;;;5033197;28;20040;-80
2022/10/24 11:45:25;;;;;;;13.48;4.22;;;;;;;;;;5034013;28;20391;-79
2022/10/24 11:47:59;;;;;;;8.88;3.88;;;;;;;;;;5034605;28;20428;-77
2022/10/24 11:50:30;;;;;;;11.82;4.60;;;;;;;;;;5017215;28;20033;-74
2022/10/24 11:52:59;;;;;;;16.33;3.63;;;;;;;;;;5032181;28;20467;-78
2022/10/24 11:55:36;;;;;;;16.13;4.18;;;;;;;;;;5034939;28;20655;-79
2022/10/24 11:58:01;;;;;;;12.05;4.32;;;;;;;;;;5034249;28;20013;-74
2022/10/24 12:00:32;;;;;;;11.88;4.15;;;;;;;;;;5033809;28;20034;-76
2022/10/24 12:03:17;;;;;;;10.55;3.95;;;;;;;;;;5032441;28;20525;-74
2022/10/24 12:06:01;;;;;;;13.23;3.28;;;;;;;;;;5017351;28;20022;-79
2022/10/24 12:08:44;;;;;;;16.88;3.75;;;;;;;;;;5033954;28;20033;-74
2022/10/24 12:11:12;;;;;;;12.37;3.47;;;;;;;;;;5031105;28;20037;-77
2022/10/24 12:13:49;;;;;;;12.90;4.15;;;;;;;;;;5029405;28;20105;-74
2022/10/24 12:16:23;;;;;;;12.05;3.42;;;;;;;;;;5034065;28;20472;-75
2022/10/24 12:18:49;;;;;;;9.35;3.63;;;;;;;;;;5033822;28;20026;-78
2022/10/24 12:21:17;;;;;;;9.95;3.50;;;;;;;;;;5033750;28;20650;-74
2022/10/24 12:23:51;;;;;;;7.03;2.90;;;;;;;;;;5033553;28;20052;-75
2022/10/24 12:26:17;;;;;;;9.93;2.95;;;;;;;;;;5023690;28;20021;-81
2022/10/24 12:28:52;;;;;;;10.30;2.95;;;;;;;;;;5034563;28;20025;-74
2022/10/24 12:31:19;;;;;;;6.80;2.92;;;;;;;;;;5023245;28;20021;-79
2022/10/24 12:33:46;;;;;;;16.08;4.10;;;;;;;;;;5033826;28;20017;-78
2022/10/24 12:36:12;;;;;;;8.27;3.78;;;;;;;;;;5034313;28;20026;-76
2022/10/24 12:38:38;;;;;;;7.78;2.97;;;;;;;;;;5033937;28;20372;-76
2022/10/24 12:41:10;;;;;;;8.10;3.83;;;;;;;;;;5030751;28;20107;-76
2022/10/24 12:43:35;;;;;;;7.82;3.28;;;;;;;;;;5032679;28;20116;-76
2022/10/24 12:46:23;;;;;;;11.02;3.50;;;;;;;;;;5030149;28;20029;-75
2022/10/24 12:48:57;;;;;;;9.43;3.45;;;;;;;;;;5033696;28;20045;-75
2022/10/24 12:51:28;;;;;;;10.50;3.10;;;;;;;;;;5033135;28;20024;-76
2022/10/24 12:54:01;;;;;;;8.32;3.25;;;;;;;;;;5033740;28;20450;-74
2022/10/24 12:56:27;;;;;;;13.10;3.10;;;;;;;;;;5033664;28;20498;-74
2022/10/24 12:59:03;;;;;;;10.85;4.03;;;;;;;;;;5019653;28;20053;-78
2022/10/24 13:01:36;;;;;;;7.57;2.80;;;;;;;;;;5008185;28;20581;-76
2022/10/24 13:04:16;;;;;;;13.38;2.85;;;;;;;;;;5006388;28;20796;-80
2022/10/24 13:06:48;;;;;;;12.77;3.58;;;;;;;;;;5003532;28;20035;-77
2022/10/24 13:09:16;;;;;;;12.30;3.00;;;;;;;;;;4997982;28;20029;-78
2022/10/24 13:11:53;;;;;;;6.88;2.50;;;;;;;;;;4999765;28;20022;-86
2022/10/24 13:14:18;;;;;;;6.30;2.90;;;;;;;;;;4997590;28;20024;-82
2022/10/24 13:17:01;;;;;;;7.03;2.90;;;;;;;;;;5005179;28;20013;-81
2022/10/24 13:19:27;;;;;;;15.02;3.58;;;;;;;;;;4999477;28;20799;-85
2022/10/24 13:21:53;;;;;;;11.27;3.42;;;;;;;;;;5005749;28;20028;-82
2022/10/24 13:24:26;;;;;;;10.27;2.72;;;;;;;;;;5003213;28;20033;-81
2022/10/24 13:26:57;;;;;;;8.25;3.10;;;;;;;;;;5004685;28;20028;-78
2022/10/24 13:29:22;;;;;;;10.43;3.53;;;;;;;;;;5004215;28;20802;-81
2022/10/24 13:31:47;;;;;;;8.23;2.70;;;;;;;;;;5003025;28;20132;-79
2022/10/24 13:34:21;;;;;;;14.57;3.50;;;;;;;;;;4991840;28;20049;-73
2022/10/24 13:36:48;;;;;;;12.95;4.10;;;;;;;;;;5002235;28;20057;-74
2022/10/24 13:39:18;;;;;;;7.55;2.90;;;;;;;;;;5000898;28;20026;-79
2022/10/24 13:41:45;;;;;;;7.70;3.60;;;;;;;;;;5000856;28;20037;-74
2022/10/24 13:44:10;;;;;;;7.30;2.85;;;;;;;;;;4982530;28;20547;-74
2022/10/24 13:46:59;;;;;;;18.93;4.03;;;;;;;;;;5001608;28;20057;-82
2022/10/24 13:49:30;;;;;;;7.88;3.25;;;;;;;;;;4978572;28;20589;-86
2022/10/24 13:51:59;;;;;;;10.13;3.55;;;;;;;;;;5006528;28;20045;-78
2022/10/24 13:54:29;;;;;;;9.57;3.78;;;;;;;;;;5002593;28;20025;-78
2022/10/24 13:56:54;;;;;;;11.48;3.67;;;;;;;;;;5003019;28;20029;-77
2022/10/24 13:59:26;;;;;;;14.05;3.72;;;;;;;;;;5001047;28;20207;-85
2022/10/24 14:01:51;;;;;;;18.45;3.85;;;;;;;;;;4977336;28;20032;-78
2022/10/24 14:04:16;;;;;;;5.95;3.47;;;;;;;;;;5001369;28;20889;-78
2022/10/24 14:06:42;;;;;;;9.68;3.30;;;;;;;;;;5007255;28;20026;-80
2022/10/24 14:09:10;;;;;;;13.20;3.42;;;;;;;;;;5010603;28;20025;-84
2022/10/24 14:11:39;;;;;;;6.63;3.40;;;;;;;;;;4999985;28;20022;-74
2022/10/24 14:14:07;;;;;;;20.52;4.20;;;;;;;;;;4994491;28;20029;-75
2022/10/24 14:16:33;;;;;;;8.63;3.35;;;;;;;;;;4979097;28;20021;-77
2022/10/24 14:19:10;;;;;;;9.07;3.58;;;;;;;;;;4997777;28;20111;-79
2022/10/24 14:21:42;;;;;;;10.98;3.13;;;;;;;;;;4994694;28;20021;-76
2022/10/24 14:24:13;;;;;;;10.80;4.05;;;;;;;;;;4994685;28;20087;-75
2022/10/24 14:26:39;;;;;;;17.15;4.10;;;;;;;;;;4996136;28;20845;-74
2022/10/24 14:29:04;;;;;;;12.98;4.32;;;;;;;;;;5000207;28;20096;-75
2022/10/24 14:31:33;;;;;;;11.90;4.00;;;;;;;;;;4996506;28;20784;-71
2022/10/24 14:33:59;;;;;;;9.30;4.40;;;;;;;;;;4996006;28;20707;-80
2022/10/24 14:36:29;;;;;;;12.07;4.45;;;;;;;;;;4998468;28;20022;-73
2022/10/24 14:38:56;;;;;;;11.02;3.97;;;;;;;;;;4996498;28;20035;-74
2022/10/24 14:41:24;;;;;;;12.95;4.45;;;;;;;;;;4992208;28;20025;-75
2022/10/24 14:43:50;;;;;;;9.65;3.75;;;;;;;;;;4995567;28;20902;-75